Nisshoumaru — JD3093 — position and weather

sailwx.info

Track history (hours):
 
Tides and Currents Weather Stations Pressure Air Temp Water Temp Dewpoint Dewpoint Depression Visibility Wind Speed Wind Dir Waves Ship Positions

Nisshoumaru

Last reported at 2016-May-03 15:33 UTC. Time now 2016-May-03 16:14 UTC.
Position N 35°22' E 139°40'.

Length 76 m; draft 4 m.

Type: Cargo ship. MMSI: 431001549.

Date/timePositionNaut miles runAvg speedWind from/ knotsBaromVisibWave heightAir tempDewpointWater temp
2016-May-03 15:33N 35°22' E 139°40'0 0.0
2016-May-03 14:33N 35°22' E 139°40'0 0.0
2016-May-03 13:33N 35°22' E 139°40'0 0.0
2016-May-03 12:32N 35°22' E 139°40'0 0.0
2016-May-03 11:30N 35°22' E 139°40'0 0.0
2016-May-03 10:33N 35°22' E 139°40'0 0.0
2016-May-03 09:33N 35°22' E 139°40'0 0.0
2016-May-03 08:33N 35°22' E 139°40'0 0.0
2016-May-03 07:34N 35°22' E 139°40'0 0.0
2016-May-03 06:32N 35°22' E 139°40'0 0.0
2016-May-03 05:33N 35°22' E 139°40'0 0.1
2016-May-03 04:33N 35°22' E 139°40'0 0.0
2016-May-03 03:33N 35°22' E 139°40'0 0.0
2016-May-03 02:33N 35°22' E 139°40'0 0.0
2016-May-03 01:34N 35°22' E 139°40'0 0.0
2016-May-03 00:33N 35°22' E 139°40'0 0.1
2016-May-02 23:33N 35°22' E 139°40'0 0.1
2016-May-02 22:33N 35°22' E 139°40'0 0.0
2016-May-02 21:33N 35°22' E 139°40'0 0.0
2016-May-02 20:33N 35°22' E 139°40'3 2.8
2016-May-02 19:33N 35°20' E 139°43'1111.1
2016-May-02 18:34N 35°09' E 139°45'24210.1
2016-May-01 18:33N 34°13' E 134°59'1110.7
2016-May-01 17:33N 34°24' E 135°03'1212.2
2016-May-01 16:33N 34°31' E 135°14'1110.9
2016-May-01 15:33N 34°35' E 135°26'1 0.9
2016-May-01 14:33N 34°35' E 135°27'0 0.0
2016-May-01 12:33N 34°35' E 135°27'0 0.0
2016-May-01 11:27N 34°35' E 135°27'0 0.0
2016-May-01 10:32N 34°35' E 135°27'0 0.0
2016-May-01 08:31N 34°35' E 135°27'0 0.0
2016-May-01 07:07N 34°35' E 135°27'0 0.1
2016-May-01 06:26N 34°35' E 135°27'0 0.0
2016-May-01 04:21N 34°35' E 135°27'0 0.0
2016-May-01 03:03N 34°35' E 135°27'0 0.0
2016-May-01 02:31N 34°35' E 135°27'0 0.0
2016-May-01 01:33N 34°35' E 135°27'0 0.0
2016-May-01 00:20N 34°35' E 135°27'0 0.0
2016-Apr-30 23:33N 34°35' E 135°27'0 0.0
2016-Apr-30 21:23N 34°35' E 135°27'0 0.0
2016-Apr-30 20:33N 34°35' E 135°27'0 0.0
2016-Apr-30 19:33N 34°35' E 135°27'0 0.0
2016-Apr-30 18:18N 34°35' E 135°27'0 0.0
2016-Apr-30 16:24N 34°35' E 135°27'0 0.0
2016-Apr-30 15:25N 34°35' E 135°27'0 0.1
2016-Apr-30 14:33N 34°35' E 135°27'0 0.0
2016-Apr-30 12:26N 34°35' E 135°27'0 0.0
2016-Apr-30 11:29N 34°35' E 135°27'0 0.1
2016-Apr-30 10:33N 34°35' E 135°27'0 0.0
2016-Apr-30 09:28N 34°35' E 135°27'0 0.0
2016-Apr-30 08:32N 34°35' E 135°27'0 0.0
2016-Apr-30 07:33N 34°35' E 135°27'4 4.1
2016-Apr-30 06:33N 34°38' E 135°23'4 3.8
2016-Apr-30 05:33N 34°39' E 135°28'0 0.0
2016-Apr-30 04:33N 34°39' E 135°28'0 0.0
2016-Apr-30 03:32N 34°39' E 135°28'0 0.1
2016-Apr-30 02:33N 34°39' E 135°28'0 0.0
2016-Apr-30 01:33N 34°39' E 135°28'0 0.0
2016-Apr-30 00:33N 34°39' E 135°28'0 0.0
2016-Apr-29 23:33N 34°39' E 135°28'0 0.0
2016-Apr-29 22:33N 34°39' E 135°28'0 0.0
2016-Apr-29 21:33N 34°39' E 135°28'0 0.0
2016-Apr-29 20:33N 34°39' E 135°28'0 0.0
2016-Apr-29 19:33N 34°39' E 135°28'0 0.0
2016-Apr-29 18:33N 34°39' E 135°28'0 0.0
2016-Apr-29 17:33N 34°39' E 135°28'0 0.0
2016-Apr-29 16:33N 34°39' E 135°28'0 0.0
2016-Apr-29 15:33N 34°39' E 135°28'0 0.0
2016-Apr-29 14:32N 34°39' E 135°28'0 0.0
2016-Apr-29 13:33N 34°39' E 135°28'0 0.0
2016-Apr-29 12:33N 34°39' E 135°28'0 0.0
2016-Apr-29 11:33N 34°39' E 135°28'0 0.0
2016-Apr-29 10:33N 34°39' E 135°28'0 0.0
2016-Apr-29 09:33N 34°39' E 135°28'0 0.0
2016-Apr-29 08:33N 34°39' E 135°28'0 0.0
2016-Apr-29 07:33N 34°39' E 135°28'3 2.6
2016-Apr-29 06:33N 34°39' E 135°25'2 2.0
2016-Apr-29 05:33N 34°37' E 135°23'0 0.0
2016-Apr-29 04:33N 34°37' E 135°23'4 3.0
2016-Apr-29 03:06N 34°40' E 135°27'0 0.0
2016-Apr-29 02:30N 34°40' E 135°27'0 0.0
2016-Apr-29 01:33N 34°40' E 135°27'0 0.0
2016-Apr-29 00:18N 34°40' E 135°27'0 0.0
2016-Apr-28 23:33N 34°40' E 135°27'0 0.0
2016-Apr-28 01:06N 34°40' E 135°27'3 6.3
2016-Apr-28 00:33N 34°38' E 135°23'2 1.7
2016-Apr-27 23:33N 34°37' E 135°22'0 0.0
2016-Apr-27 22:31N 34°37' E 135°22'0 0.0
2016-Apr-27 21:33N 34°37' E 135°22'0 0.0
2016-Apr-27 20:33N 34°37' E 135°22'0 0.0
2016-Apr-27 19:33N 34°37' E 135°22'0 0.0
2016-Apr-27 18:29N 34°37' E 135°22'0 0.0
2016-Apr-27 17:33N 34°37' E 135°22'0 0.0
2016-Apr-27 16:33N 34°37' E 135°22'0 0.0
2016-Apr-27 15:32N 34°37' E 135°22'0 0.0
2016-Apr-27 14:33N 34°37' E 135°22'0 0.0
2016-Apr-27 13:33N 34°37' E 135°22'0 0.0
2016-Apr-27 12:33N 34°37' E 135°22'0 0.1
2016-Apr-27 11:33N 34°37' E 135°22'1111.2
2016-Apr-27 10:33N 34°29' E 135°12'1711.9
2016-Apr-27 09:09N 34°16' E 134°59'610.2
2016-Apr-27 08:33N 34°10' E 135°00'24210.1
2016-Apr-26 08:32N 35°11' E 139°45'1010.6
2016-Apr-26 07:33N 35°21' E 139°43'6 6.3
2016-Apr-26 06:34N 35°22' E 139°50'1 1.2
2016-Apr-26 05:33N 35°21' E 139°51'0 0.0
2016-Apr-26 04:33N 35°21' E 139°51'0 0.2
2016-Apr-26 03:33N 35°21' E 139°51'0 0.1
2016-Apr-26 02:21N 35°21' E 139°51'0 0.1
2016-Apr-26 01:33N 35°21' E 139°51'2 1.6
2016-Apr-26 00:34N 35°22' E 139°49'0 0.0
2016-Apr-25 23:33N 35°22' E 139°49'0 0.0
2016-Apr-25 22:33N 35°22' E 139°49'0 0.0
2016-Apr-25 21:33N 35°22' E 139°49'0 0.0
2016-Apr-25 20:34N 35°22' E 139°49'2 1.5
2016-Apr-25 19:33N 35°21' E 139°51'0 0.0
2016-Apr-25 18:33N 35°21' E 139°51'0 0.0
2016-Apr-25 17:33N 35°21' E 139°51'0 0.0
2016-Apr-25 16:33N 35°21' E 139°51'0 0.0
2016-Apr-25 15:33N 35°21' E 139°51'0 0.0
2016-Apr-25 14:33N 35°21' E 139°51'0 0.0
2016-Apr-25 13:32N 35°21' E 139°51'0 0.0
2016-Apr-25 12:33N 35°21' E 139°51'0 0.0
2016-Apr-25 11:33N 35°21' E 139°51'0 0.0
2016-Apr-25 10:34N 35°21' E 139°51'0 0.0
2016-Apr-25 09:33N 35°21' E 139°51'2 1.9
2016-Apr-25 08:33N 35°22' E 139°49'4 3.5
2016-Apr-25 07:33N 35°22' E 139°53'0 0.0
2016-Apr-25 06:33N 35°22' E 139°53'0 0.0
2016-Apr-25 05:33N 35°22' E 139°53'0 0.0
2016-Apr-25 04:34N 35°22' E 139°53'0 0.0
2016-Apr-25 03:33N 35°22' E 139°53'0 0.0
2016-Apr-25 02:34N 35°22' E 139°53'0 0.0
2016-Apr-25 01:33N 35°22' E 139°53'0 0.0
2016-Apr-25 00:33N 35°22' E 139°53'0 0.0
2016-Apr-24 23:33N 35°22' E 139°53'3 3.0
2016-Apr-24 22:33N 35°24' E 139°51'0 0.0
2016-Apr-24 21:33N 35°24' E 139°51'0 0.0
2016-Apr-24 20:34N 35°24' E 139°51'0 0.0
2016-Apr-24 19:34N 35°24' E 139°51'0 0.0
2016-Apr-24 18:33N 35°24' E 139°51'0 0.0
2016-Apr-24 17:34N 35°24' E 139°51'0 0.0
2016-Apr-24 16:33N 35°24' E 139°51'0 0.0
2016-Apr-24 15:34N 35°24' E 139°51'0 0.0
2016-Apr-24 14:33N 35°24' E 139°51'0 0.0
2016-Apr-24 13:34N 35°24' E 139°51'0 0.0
2016-Apr-24 12:33N 35°24' E 139°51'0 0.0
2016-Apr-24 11:34N 35°24' E 139°51'0 0.0
2016-Apr-24 10:34N 35°24' E 139°51'0 0.0
2016-Apr-24 09:33N 35°24' E 139°51'0 0.0
2016-Apr-24 08:34N 35°24' E 139°51'0 0.0
2016-Apr-24 07:33N 35°24' E 139°51'3 2.7
2016-Apr-24 06:34N 35°26' E 139°51'1211.9
2016-Apr-24 05:33N 35°37' E 139°58'4 3.9
2016-Apr-24 04:33N 35°41' E 139°57'0 0.0
2016-Apr-24 03:33N 35°41' E 139°57'0 0.0
2016-Apr-24 02:33N 35°41' E 139°57'0 0.0
2016-Apr-24 01:33N 35°41' E 139°57'0 0.0
2016-Apr-24 00:33N 35°41' E 139°57'0 0.0
2016-Apr-23 23:34N 35°41' E 139°57'0 0.0
2016-Apr-23 22:34N 35°41' E 139°57'4 4.1
2016-Apr-23 21:33N 35°37' E 139°58'0 0.1
2016-Apr-23 20:33N 35°37' E 139°58'0 0.1
2016-Apr-23 19:33N 35°37' E 139°58'0 0.0
2016-Apr-23 18:33N 35°37' E 139°58'0 0.0
2016-Apr-23 17:33N 35°37' E 139°58'2 2.2
2016-Apr-23 16:34N 35°35' E 139°57'  
Track history (hours):
 
Tides and Currents Weather Stations Pressure Air Temp Water Temp Dewpoint Dewpoint Depression Visibility Wind Speed Wind Dir Waves Ship Positions

Nisshoumaru

Last reported at 2016-May-03 15:33 UTC. Time now 2016-May-03 16:14 UTC.
Position N 35°22' E 139°40'.

Length 76 m; draft 4 m.

Type: Cargo ship. MMSI: 431001549.

Date/timePositionNaut miles runAvg speedWind from/ knotsBaromVisibWave heightAir tempDewpointWater temp
2016-May-03 15:33N 35°22' E 139°40'0 0.0
2016-May-03 14:33N 35°22' E 139°40'0 0.0
2016-May-03 13:33N 35°22' E 139°40'0 0.0
2016-May-03 12:32N 35°22' E 139°40'0 0.0
2016-May-03 11:30N 35°22' E 139°40'0 0.0
2016-May-03 10:33N 35°22' E 139°40'0 0.0
2016-May-03 09:33N 35°22' E 139°40'0 0.0
2016-May-03 08:33N 35°22' E 139°40'0 0.0
2016-May-03 07:34N 35°22' E 139°40'0 0.0
2016-May-03 06:32N 35°22' E 139°40'0 0.0
2016-May-03 05:33N 35°22' E 139°40'0 0.1
2016-May-03 04:33N 35°22' E 139°40'0 0.0
2016-May-03 03:33N 35°22' E 139°40'0 0.0
2016-May-03 02:33N 35°22' E 139°40'0 0.0
2016-May-03 01:34N 35°22' E 139°40'0 0.0
2016-May-03 00:33N 35°22' E 139°40'0 0.1
2016-May-02 23:33N 35°22' E 139°40'0 0.1
2016-May-02 22:33N 35°22' E 139°40'0 0.0
2016-May-02 21:33N 35°22' E 139°40'0 0.0
2016-May-02 20:33N 35°22' E 139°40'3 2.8
2016-May-02 19:33N 35°20' E 139°43'1111.1
2016-May-02 18:34N 35°09' E 139°45'24210.1
2016-May-01 18:33N 34°13' E 134°59'1110.7
2016-May-01 17:33N 34°24' E 135°03'1212.2
2016-May-01 16:33N 34°31' E 135°14'1110.9
2016-May-01 15:33N 34°35' E 135°26'1 0.9
2016-May-01 14:33N 34°35' E 135°27'0 0.0
2016-May-01 12:33N 34°35' E 135°27'0 0.0
2016-May-01 11:27N 34°35' E 135°27'0 0.0
2016-May-01 10:32N 34°35' E 135°27'0 0.0
2016-May-01 08:31N 34°35' E 135°27'0 0.0
2016-May-01 07:07N 34°35' E 135°27'0 0.1
2016-May-01 06:26N 34°35' E 135°27'0 0.0
2016-May-01 04:21N 34°35' E 135°27'0 0.0
2016-May-01 03:03N 34°35' E 135°27'0 0.0
2016-May-01 02:31N 34°35' E 135°27'0 0.0
2016-May-01 01:33N 34°35' E 135°27'0 0.0
2016-May-01 00:20N 34°35' E 135°27'0 0.0
2016-Apr-30 23:33N 34°35' E 135°27'0 0.0
2016-Apr-30 21:23N 34°35' E 135°27'0 0.0
2016-Apr-30 20:33N 34°35' E 135°27'0 0.0
2016-Apr-30 19:33N 34°35' E 135°27'0 0.0
2016-Apr-30 18:18N 34°35' E 135°27'0 0.0
2016-Apr-30 16:24N 34°35' E 135°27'0 0.0
2016-Apr-30 15:25N 34°35' E 135°27'0 0.1
2016-Apr-30 14:33N 34°35' E 135°27'0 0.0
2016-Apr-30 12:26N 34°35' E 135°27'0 0.0
2016-Apr-30 11:29N 34°35' E 135°27'0 0.1
2016-Apr-30 10:33N 34°35' E 135°27'0 0.0
2016-Apr-30 09:28N 34°35' E 135°27'0 0.0
2016-Apr-30 08:32N 34°35' E 135°27'0 0.0
2016-Apr-30 07:33N 34°35' E 135°27'4 4.1
2016-Apr-30 06:33N 34°38' E 135°23'4 3.8
2016-Apr-30 05:33N 34°39' E 135°28'0 0.0
2016-Apr-30 04:33N 34°39' E 135°28'0 0.0
2016-Apr-30 03:32N 34°39' E 135°28'0 0.1
2016-Apr-30 02:33N 34°39' E 135°28'0 0.0
2016-Apr-30 01:33N 34°39' E 135°28'0 0.0
2016-Apr-30 00:33N 34°39' E 135°28'0 0.0
2016-Apr-29 23:33N 34°39' E 135°28'0 0.0
2016-Apr-29 22:33N 34°39' E 135°28'0 0.0
2016-Apr-29 21:33N 34°39' E 135°28'0 0.0
2016-Apr-29 20:33N 34°39' E 135°28'0 0.0
2016-Apr-29 19:33N 34°39' E 135°28'0 0.0
2016-Apr-29 18:33N 34°39' E 135°28'0 0.0
2016-Apr-29 17:33N 34°39' E 135°28'0 0.0
2016-Apr-29 16:33N 34°39' E 135°28'0 0.0
2016-Apr-29 15:33N 34°39' E 135°28'0 0.0
2016-Apr-29 14:32N 34°39' E 135°28'0 0.0
2016-Apr-29 13:33N 34°39' E 135°28'0 0.0
2016-Apr-29 12:33N 34°39' E 135°28'0 0.0
2016-Apr-29 11:33N 34°39' E 135°28'0 0.0
2016-Apr-29 10:33N 34°39' E 135°28'0 0.0
2016-Apr-29 09:33N 34°39' E 135°28'0 0.0
2016-Apr-29 08:33N 34°39' E 135°28'0 0.0
2016-Apr-29 07:33N 34°39' E 135°28'3 2.6
2016-Apr-29 06:33N 34°39' E 135°25'2 2.0
2016-Apr-29 05:33N 34°37' E 135°23'0 0.0
2016-Apr-29 04:33N 34°37' E 135°23'4 3.0
2016-Apr-29 03:06N 34°40' E 135°27'0 0.0
2016-Apr-29 02:30N 34°40' E 135°27'0 0.0
2016-Apr-29 01:33N 34°40' E 135°27'0 0.0
2016-Apr-29 00:18N 34°40' E 135°27'0 0.0
2016-Apr-28 23:33N 34°40' E 135°27'0 0.0
2016-Apr-28 01:06N 34°40' E 135°27'3 6.3
2016-Apr-28 00:33N 34°38' E 135°23'2 1.7
2016-Apr-27 23:33N 34°37' E 135°22'0 0.0
2016-Apr-27 22:31N 34°37' E 135°22'0 0.0
2016-Apr-27 21:33N 34°37' E 135°22'0 0.0
2016-Apr-27 20:33N 34°37' E 135°22'0 0.0
2016-Apr-27 19:33N 34°37' E 135°22'0 0.0
2016-Apr-27 18:29N 34°37' E 135°22'0 0.0
2016-Apr-27 17:33N 34°37' E 135°22'0 0.0
2016-Apr-27 16:33N 34°37' E 135°22'0 0.0
2016-Apr-27 15:32N 34°37' E 135°22'0 0.0
2016-Apr-27 14:33N 34°37' E 135°22'0 0.0
2016-Apr-27 13:33N 34°37' E 135°22'0 0.0
2016-Apr-27 12:33N 34°37' E 135°22'0 0.1
2016-Apr-27 11:33N 34°37' E 135°22'1111.2
2016-Apr-27 10:33N 34°29' E 135°12'1711.9
2016-Apr-27 09:09N 34°16' E 134°59'610.2
2016-Apr-27 08:33N 34°10' E 135°00'24210.1
2016-Apr-26 08:32N 35°11' E 139°45'1010.6
2016-Apr-26 07:33N 35°21' E 139°43'6 6.3
2016-Apr-26 06:34N 35°22' E 139°50'1 1.2
2016-Apr-26 05:33N 35°21' E 139°51'0 0.0
2016-Apr-26 04:33N 35°21' E 139°51'0 0.2
2016-Apr-26 03:33N 35°21' E 139°51'0 0.1
2016-Apr-26 02:21N 35°21' E 139°51'0 0.1
2016-Apr-26 01:33N 35°21' E 139°51'2 1.6
2016-Apr-26 00:34N 35°22' E 139°49'0 0.0
2016-Apr-25 23:33N 35°22' E 139°49'0 0.0
2016-Apr-25 22:33N 35°22' E 139°49'0 0.0
2016-Apr-25 21:33N 35°22' E 139°49'0 0.0
2016-Apr-25 20:34N 35°22' E 139°49'2 1.5
2016-Apr-25 19:33N 35°21' E 139°51'0 0.0
2016-Apr-25 18:33N 35°21' E 139°51'0 0.0
2016-Apr-25 17:33N 35°21' E 139°51'0 0.0
2016-Apr-25 16:33N 35°21' E 139°51'0 0.0
2016-Apr-25 15:33N 35°21' E 139°51'0 0.0
2016-Apr-25 14:33N 35°21' E 139°51'0 0.0
2016-Apr-25 13:32N 35°21' E 139°51'0 0.0
2016-Apr-25 12:33N 35°21' E 139°51'0 0.0
2016-Apr-25 11:33N 35°21' E 139°51'0 0.0
2016-Apr-25 10:34N 35°21' E 139°51'0 0.0
2016-Apr-25 09:33N 35°21' E 139°51'2 1.9
2016-Apr-25 08:33N 35°22' E 139°49'4 3.5
2016-Apr-25 07:33N 35°22' E 139°53'0 0.0
2016-Apr-25 06:33N 35°22' E 139°53'0 0.0
2016-Apr-25 05:33N 35°22' E 139°53'0 0.0
2016-Apr-25 04:34N 35°22' E 139°53'0 0.0
2016-Apr-25 03:33N 35°22' E 139°53'0 0.0
2016-Apr-25 02:34N 35°22' E 139°53'0 0.0
2016-Apr-25 01:33N 35°22' E 139°53'0 0.0
2016-Apr-25 00:33N 35°22' E 139°53'0 0.0
2016-Apr-24 23:33N 35°22' E 139°53'3 3.0
2016-Apr-24 22:33N 35°24' E 139°51'0 0.0
2016-Apr-24 21:33N 35°24' E 139°51'0 0.0
2016-Apr-24 20:34N 35°24' E 139°51'0 0.0
2016-Apr-24 19:34N 35°24' E 139°51'0 0.0
2016-Apr-24 18:33N 35°24' E 139°51'0 0.0
2016-Apr-24 17:34N 35°24' E 139°51'0 0.0
2016-Apr-24 16:33N 35°24' E 139°51'0 0.0
2016-Apr-24 15:34N 35°24' E 139°51'0 0.0
2016-Apr-24 14:33N 35°24' E 139°51'0 0.0
2016-Apr-24 13:34N 35°24' E 139°51'0 0.0
2016-Apr-24 12:33N 35°24' E 139°51'0 0.0
2016-Apr-24 11:34N 35°24' E 139°51'0 0.0
2016-Apr-24 10:34N 35°24' E 139°51'0 0.0
2016-Apr-24 09:33N 35°24' E 139°51'0 0.0
2016-Apr-24 08:34N 35°24' E 139°51'0 0.0
2016-Apr-24 07:33N 35°24' E 139°51'3 2.7
2016-Apr-24 06:34N 35°26' E 139°51'1211.9
2016-Apr-24 05:33N 35°37' E 139°58'4 3.9
2016-Apr-24 04:33N 35°41' E 139°57'0 0.0
2016-Apr-24 03:33N 35°41' E 139°57'0 0.0
2016-Apr-24 02:33N 35°41' E 139°57'0 0.0
2016-Apr-24 01:33N 35°41' E 139°57'0 0.0
2016-Apr-24 00:33N 35°41' E 139°57'0 0.0
2016-Apr-23 23:34N 35°41' E 139°57'0 0.0
2016-Apr-23 22:34N 35°41' E 139°57'4 4.1
2016-Apr-23 21:33N 35°37' E 139°58'0 0.1
2016-Apr-23 20:33N 35°37' E 139°58'0 0.1
2016-Apr-23 19:33N 35°37' E 139°58'0 0.0
2016-Apr-23 18:33N 35°37' E 139°58'0 0.0
2016-Apr-23 17:33N 35°37' E 139°58'2 2.2
2016-Apr-23 16:34N 35°35' E 139°57'  

Dump ship's entire track history